createdAt,value
2022-11-11T00:02:59.575Z,98755.44
2022-11-11T00:06:22.352Z,98752.44
2022-11-11T00:09:43.656Z,98745.91
2022-11-11T00:13:05.993Z,98762.75
2022-11-11T00:16:47.294Z,98766.13
2022-11-11T00:20:31.169Z,98767.78
2022-11-11T00:24:13.943Z,98779.94
2022-11-11T00:27:35.291Z,98785.66
2022-11-11T00:31:03.261Z,98794.47
2022-11-11T00:34:24.908Z,98789.28
2022-11-11T00:37:48.845Z,98800.72
2022-11-11T00:41:12.549Z,98804.56
2022-11-11T00:44:33.895Z,98818.03
2022-11-11T00:48:12.934Z,98810.41
2022-11-11T00:51:34.451Z,98810.44
2022-11-11T00:54:55.629Z,98805.34
2022-11-11T00:58:18.553Z,98798.59
2022-11-11T01:01:40.270Z,98805.59
2022-11-11T01:05:01.537Z,98799.34
2022-11-11T01:08:27.659Z,98808.50
2022-11-11T01:11:49.426Z,98801.09
2022-11-11T01:15:12.554Z,98807.28
2022-11-11T01:18:34.746Z,98820.88
2022-11-11T01:21:56.138Z,98822.97
2022-11-11T01:25:17.695Z,98841.56
2022-11-11T01:28:39.295Z,98849.66
2022-11-11T01:32:02.034Z,98857.28
2022-11-11T01:35:23.809Z,98853.44
2022-11-11T01:38:45.426Z,98838.50
2022-11-11T01:42:06.917Z,98839.06
2022-11-11T01:45:49.212Z,98851.78
2022-11-11T01:49:27.571Z,98855.97
2022-11-11T01:52:49.283Z,98854.28
2022-11-11T01:56:12.000Z,98855.69
2022-11-11T01:59:36.928Z,98862.59
2022-11-11T02:03:02.225Z,98868.94
2022-11-11T02:06:25.110Z,98869.75
2022-11-11T02:09:48.724Z,98876.28
2022-11-11T02:13:32.324Z,98873.19
2022-11-11T02:16:53.788Z,98887.72
2022-11-11T02:20:19.726Z,98880.81
2022-11-11T02:23:47.268Z,98877.75
2022-11-11T02:27:12.225Z,98877.72
2022-11-11T02:30:34.069Z,98883.56
2022-11-11T02:33:55.526Z,98895.22
2022-11-11T02:37:23.781Z,98895.44
2022-11-11T02:41:00.880Z,98892.22
2022-11-11T02:44:24.247Z,98893.88
2022-11-11T02:47:45.915Z,98898.88
2022-11-11T02:51:08.915Z,98893.06
2022-11-11T02:54:30.772Z,98894.50
2022-11-11T02:57:52.676Z,98896.06
2022-11-11T03:01:19.711Z,98894.59
2022-11-11T03:04:41.978Z,98892.00
2022-11-11T03:08:03.635Z,98899.84
2022-11-11T03:11:29.039Z,98905.09
2022-11-11T03:14:50.862Z,98913.88
2022-11-11T03:18:13.744Z,98903.41
2022-11-11T03:25:34.407Z,98923.03
2022-11-11T03:28:55.882Z,98928.53
2022-11-11T03:32:17.491Z,98923.66
2022-11-11T03:35:40.938Z,98931.50
2022-11-11T03:39:01.714Z,98925.06
2022-11-11T03:42:23.425Z,98932.66
2022-11-11T03:45:45.476Z,98931.63
2022-11-11T03:49:06.790Z,98924.59
2022-11-11T03:52:29.718Z,98913.44
2022-11-11T03:55:52.215Z,98913.09
2022-11-11T03:59:13.331Z,98923.50
2022-11-11T04:02:57.781Z,98922.19
2022-11-11T04:06:36.683Z,98924.94
2022-11-11T04:10:25.664Z,98926.97
2022-11-11T04:14:06.934Z,98925.78
2022-11-11T04:17:28.692Z,98924.00
2022-11-11T04:21:07.572Z,98916.13
2022-11-11T04:24:46.377Z,98915.28
2022-11-11T04:28:26.546Z,98913.50
2022-11-11T04:32:01.680Z,98915.97
2022-11-11T04:35:24.064Z,98910.88
2022-11-11T04:39:03.392Z,98914.19
2022-11-11T04:42:25.094Z,98921.19
2022-11-11T04:45:47.818Z,98915.75
2022-11-11T04:49:09.334Z,98923.72
2022-11-11T04:52:31.343Z,98931.47
2022-11-11T04:56:10.326Z,98929.81
2022-11-11T04:59:32.163Z,98927.75
2022-11-11T05:03:14.321Z,98926.72
2022-11-11T05:06:58.127Z,98925.53
2022-11-11T05:10:21.176Z,98927.19
2022-11-11T05:14:00.243Z,98920.88
2022-11-11T05:17:39.618Z,98930.28
2022-11-11T05:21:19.998Z,98918.75
2022-11-11T05:24:58.415Z,98910.75
2022-11-11T05:28:19.887Z,98906.47
2022-11-11T05:31:41.409Z,98909.34
2022-11-11T05:35:03.318Z,98892.94
2022-11-11T05:38:25.966Z,98896.53
2022-11-11T05:41:47.639Z,98890.06
2022-11-11T05:45:10.416Z,98887.44
2022-11-11T05:48:33.585Z,98889.22
2022-11-11T05:51:55.708Z,98890.31
2022-11-11T05:55:18.713Z,98901.22
2022-11-11T05:58:40.390Z,98898.22
2022-11-11T06:02:02.029Z,98908.06
2022-11-11T06:05:23.617Z,98906.53
2022-11-11T06:08:45.465Z,98918.78
2022-11-11T06:12:08.163Z,98927.09
2022-11-11T06:15:30.422Z,98932.31
2022-11-11T06:18:52.893Z,98928.97
2022-11-11T06:22:35.248Z,98923.44
2022-11-11T06:26:15.214Z,98927.53
2022-11-11T06:29:38.415Z,98924.69
2022-11-11T06:33:00.105Z,98922.69
2022-11-11T06:36:22.993Z,98917.56
2022-11-11T06:39:44.361Z,98918.91
2022-11-11T06:43:05.980Z,98909.75
2022-11-11T06:46:29.027Z,98914.53
2022-11-11T06:49:50.609Z,98902.44
2022-11-11T06:53:13.914Z,98894.34
2022-11-11T06:56:35.049Z,98891.16
2022-11-11T06:59:56.561Z,98887.22
2022-11-11T07:03:25.302Z,98891.28
2022-11-11T07:06:47.144Z,98875.59
2022-11-11T07:10:10.572Z,98877.63
2022-11-11T07:13:32.133Z,98885.72
2022-11-11T07:16:53.920Z,98881.06
2022-11-11T07:20:17.169Z,98873.66
2022-11-11T07:23:38.740Z,98871.28
2022-11-11T07:27:02.163Z,98875.53
2022-11-11T07:30:23.609Z,98870.06
2022-11-11T07:33:45.346Z,98876.59
2022-11-11T07:37:08.984Z,98872.63
2022-11-11T07:40:30.851Z,98878.31
2022-11-11T07:43:52.338Z,98875.19
2022-11-11T07:47:13.890Z,98863.09
2022-11-11T07:50:35.337Z,98839.72
2022-11-11T07:53:58.569Z,98831.13
2022-11-11T07:57:20.073Z,98806.50
2022-11-11T08:00:41.328Z,98794.72
2022-11-11T08:04:03.030Z,98780.56
2022-11-11T08:07:24.618Z,98779.78
2022-11-11T08:10:47.397Z,98775.81
2022-11-11T08:14:08.200Z,98773.06
2022-11-11T08:17:29.556Z,98770.63
2022-11-11T08:20:54.825Z,98778.97
2022-11-11T08:28:03.483Z,98803.59
2022-11-11T08:31:25.145Z,98805.84
2022-11-11T08:34:46.808Z,98803.47
2022-11-11T08:38:08.455Z,98805.16
2022-11-11T08:41:31.166Z,98804.75
2022-11-11T08:44:54.018Z,98805.97
2022-11-11T08:48:15.656Z,98827.13
2022-11-11T08:51:42.073Z,98828.63
2022-11-11T08:55:06.648Z,98852.16
2022-11-11T08:58:28.220Z,98874.47
2022-11-11T09:01:51.078Z,98881.78
2022-11-11T09:05:12.673Z,98891.03
2022-11-11T09:08:34.299Z,98887.13
2022-11-11T09:11:55.897Z,98881.56
2022-11-11T09:15:17.769Z,98889.84
2022-11-11T09:18:40.832Z,98902.66
2022-11-11T09:22:02.138Z,98913.91
2022-11-11T09:25:24.208Z,98925.13
2022-11-11T09:28:46.497Z,98925.66
2022-11-11T09:32:08.171Z,98934.00
2022-11-11T09:35:31.401Z,98939.44
2022-11-11T09:38:53.018Z,98939.16
2022-11-11T09:42:25.255Z,98941.69
2022-11-11T09:46:02.737Z,98943.75
2022-11-11T09:49:36.506Z,98929.13
2022-11-11T09:53:05.904Z,98925.09
2022-11-11T09:56:31.799Z,98923.66
2022-11-11T09:59:57.572Z,98915.69
2022-11-11T10:03:21.294Z,98913.88
2022-11-11T10:06:43.188Z,98911.84
2022-11-11T10:10:21.457Z,98907.66
2022-11-11T10:13:42.949Z,98912.06
2022-11-11T10:17:16.093Z,98920.50
2022-11-11T10:20:42.831Z,98906.69
2022-11-11T10:24:13.005Z,98909.94
2022-11-11T10:27:37.127Z,98901.66
2022-11-11T10:31:01.999Z,98909.03
2022-11-11T10:34:23.629Z,98917.38
2022-11-11T10:37:45.192Z,98925.06
2022-11-11T10:41:15.356Z,98922.16
2022-11-11T10:44:39.615Z,98916.22
2022-11-11T10:48:04.504Z,98924.75
2022-11-11T10:51:28.866Z,98938.22
2022-11-11T10:54:55.076Z,98939.41
2022-11-11T10:58:22.200Z,98946.09
2022-11-11T11:01:55.978Z,98941.94
2022-11-11T11:05:23.875Z,98944.31
2022-11-11T11:08:49.222Z,98952.66
2022-11-11T11:12:17.211Z,98953.75
2022-11-11T11:15:44.942Z,98959.09
2022-11-11T11:19:21.392Z,98956.97
2022-11-11T11:22:48.031Z,98958.38
2022-11-11T11:26:11.101Z,98964.34
2022-11-11T11:29:34.793Z,98967.94
2022-11-11T11:33:00.508Z,98965.63
2022-11-11T11:36:23.413Z,98956.34
2022-11-11T11:39:45.565Z,98947.56
2022-11-11T11:43:26.585Z,98954.91
2022-11-11T11:46:48.644Z,98955.72
2022-11-11T11:50:25.996Z,98957.69
2022-11-11T11:54:05.759Z,98955.50
2022-11-11T11:57:42.972Z,98959.81
2022-11-11T12:01:09.052Z,98958.47
2022-11-11T12:04:51.414Z,98956.44
2022-11-11T12:08:28.265Z,98948.91
2022-11-11T12:11:59.065Z,98950.41
2022-11-11T12:15:32.563Z,98946.94
2022-11-11T12:19:28.069Z,98945.63
2022-11-11T12:23:01.672Z,98942.28
2022-11-11T12:26:29.896Z,98934.03
2022-11-11T12:30:04.663Z,98942.34
2022-11-11T12:33:53.322Z,98943.03
2022-11-11T12:37:22.762Z,98943.84
2022-11-11T12:40:56.042Z,98943.22
2022-11-11T12:44:19.057Z,98936.59
2022-11-11T12:47:53.523Z,98923.16
2022-11-11T12:51:34.412Z,98924.44
2022-11-11T12:55:09.011Z,98920.53
2022-11-11T12:58:42.318Z,98923.84
2022-11-11T13:02:21.289Z,98918.22
2022-11-11T13:05:55.099Z,98921.69
2022-11-11T13:09:35.177Z,98927.47
2022-11-11T13:13:14.200Z,98929.44
2022-11-11T13:16:35.844Z,98922.19
2022-11-11T13:20:00.972Z,98918.22
2022-11-11T13:23:25.549Z,98923.53
2022-11-11T13:26:51.764Z,98920.72
2022-11-11T13:30:41.479Z,98924.84
2022-11-11T13:34:07.523Z,98929.16
2022-11-11T13:37:33.232Z,98925.03
2022-11-11T13:40:58.540Z,98914.75
2022-11-11T13:44:24.969Z,98916.75
2022-11-11T13:47:48.919Z,98922.88
2022-11-11T13:51:26.885Z,98919.53
2022-11-11T13:54:54.871Z,98926.34
2022-11-11T13:58:26.464Z,98918.41
2022-11-11T14:01:48.059Z,98920.22
2022-11-11T14:05:23.986Z,98915.53
2022-11-11T14:08:56.031Z,98915.22
2022-11-11T14:12:38.815Z,98909.59
2022-11-11T14:16:01.986Z,98918.88
2022-11-11T14:19:33.931Z,98923.34
2022-11-11T14:22:55.662Z,98921.53
2022-11-11T14:26:24.800Z,98922.19
2022-11-11T14:29:52.292Z,98928.44
2022-11-11T14:33:25.124Z,98927.78
2022-11-11T14:36:53.305Z,98933.22
2022-11-11T14:40:26.412Z,98933.72
2022-11-11T14:43:48.263Z,98929.75
2022-11-11T14:47:31.919Z,98932.53
2022-11-11T14:50:54.933Z,98936.31
2022-11-11T14:54:22.311Z,98932.47
2022-11-11T14:57:48.412Z,98927.94
2022-11-11T15:01:15.603Z,98935.91
2022-11-11T15:04:39.520Z,98928.47
2022-11-11T15:08:11.973Z,98927.00
2022-11-11T15:11:45.061Z,98928.59
2022-11-11T15:15:15.960Z,98921.94
2022-11-11T15:18:54.991Z,98930.84
2022-11-11T15:22:35.232Z,98922.16
2022-11-11T15:26:07.921Z,98914.84
2022-11-11T15:29:57.848Z,98918.97
2022-11-11T15:33:27.665Z,98919.66
2022-11-11T15:36:59.650Z,98923.31
2022-11-11T15:40:28.432Z,98920.75
2022-11-11T15:43:52.998Z,98915.78
2022-11-11T15:47:17.304Z,98911.69
2022-11-11T15:50:42.877Z,98918.31
2022-11-11T15:54:22.442Z,98926.53
2022-11-11T15:57:43.860Z,98922.84
2022-11-11T16:01:08.631Z,98920.66
2022-11-11T16:08:20.410Z,98907.06
2022-11-11T16:11:42.287Z,98905.41
2022-11-11T16:15:06.633Z,98899.03
2022-11-11T16:18:33.377Z,98896.75
2022-11-11T16:22:02.332Z,98896.59
2022-11-11T16:25:24.832Z,98900.19
2022-11-11T16:28:49.294Z,98903.97
2022-11-11T16:32:20.763Z,98902.56
2022-11-11T16:35:43.843Z,98899.66
2022-11-11T16:39:15.950Z,98888.47
2022-11-11T16:42:37.630Z,98886.94
2022-11-11T16:46:04.487Z,98886.50
2022-11-11T16:49:30.303Z,98874.72
2022-11-11T16:52:57.803Z,98866.44
2022-11-11T16:56:25.346Z,98870.59
2022-11-11T16:59:52.704Z,98884.00
2022-11-11T17:03:16.036Z,98888.00
2022-11-11T17:06:49.038Z,98892.00
2022-11-11T17:10:17.747Z,98879.16
2022-11-11T17:13:42.538Z,98887.16
2022-11-11T17:17:06.529Z,98888.88
2022-11-11T17:20:28.014Z,98895.44
2022-11-11T17:23:49.414Z,98890.41
2022-11-11T17:27:12.530Z,98893.78
2022-11-11T17:30:34.299Z,98881.88
2022-11-11T17:33:56.033Z,98880.88
2022-11-11T17:37:17.716Z,98884.78
2022-11-11T17:40:45.163Z,98876.34
2022-11-11T17:44:08.426Z,98880.78
2022-11-11T17:47:31.392Z,98868.97
2022-11-11T17:50:52.993Z,98878.13
2022-11-11T17:54:14.432Z,98883.63
2022-11-11T17:57:36.347Z,98889.03
2022-11-11T18:01:07.820Z,98881.19
2022-11-11T18:04:29.345Z,98887.78
2022-11-11T18:07:51.199Z,98895.78
2022-11-11T18:11:12.810Z,98883.47
2022-11-11T18:14:34.603Z,98880.47
2022-11-11T18:17:57.251Z,98875.53
2022-11-11T18:21:20.988Z,98871.06
2022-11-11T18:24:42.429Z,98875.69
2022-11-11T18:28:03.914Z,98868.16
2022-11-11T18:31:25.483Z,98878.59
2022-11-11T18:34:47.991Z,98882.13
2022-11-11T18:38:09.142Z,98878.56
2022-11-11T18:41:30.652Z,98884.06
2022-11-11T18:44:51.954Z,98887.13
2022-11-11T18:48:13.443Z,98890.63
2022-11-11T18:51:36.227Z,98887.75
2022-11-11T18:54:57.781Z,98889.75
2022-11-11T18:58:18.885Z,98890.19
2022-11-11T19:01:41.341Z,98893.53
2022-11-11T19:05:02.812Z,98897.09
2022-11-11T19:08:25.400Z,98899.84
2022-11-11T19:11:47.543Z,98885.84
2022-11-11T19:15:09.336Z,98886.06
2022-11-11T19:18:30.341Z,98880.47
2022-11-11T19:21:51.931Z,98877.63
2022-11-11T19:25:14.753Z,98875.53
2022-11-11T19:28:36.805Z,98869.66
2022-11-11T19:31:57.988Z,98861.53
2022-11-11T19:35:22.115Z,98861.53
2022-11-11T19:39:03.271Z,98860.47
2022-11-11T19:42:26.362Z,98869.19
2022-11-11T19:45:48.237Z,98872.03
2022-11-11T19:49:09.663Z,98881.53
2022-11-11T19:52:31.097Z,98884.69
2022-11-11T19:55:59.019Z,98885.91
2022-11-11T19:59:22.280Z,98880.50
2022-11-11T20:02:43.683Z,98880.25
2022-11-11T20:06:08.142Z,98889.09
2022-11-11T20:09:32.646Z,98902.13
2022-11-11T20:12:54.637Z,98908.09
2022-11-11T20:16:17.533Z,98902.19
2022-11-11T20:19:38.863Z,98915.59
2022-11-11T20:23:00.081Z,98913.81
2022-11-11T20:26:21.749Z,98937.22
2022-11-11T20:29:43.416Z,98953.28
2022-11-11T20:33:05.864Z,98961.03
2022-11-11T20:36:29.879Z,98965.63
2022-11-11T20:39:51.537Z,98967.84
2022-11-11T20:43:13.369Z,98969.97
2022-11-11T20:46:35.544Z,98985.47
2022-11-11T20:50:00.637Z,98973.31
2022-11-11T20:53:22.433Z,98979.31
2022-11-11T20:56:45.636Z,98976.69
2022-11-11T21:00:10.036Z,98977.16
2022-11-11T21:03:31.898Z,98983.31
2022-11-11T21:06:54.699Z,98980.47
2022-11-11T21:10:16.219Z,98989.31
2022-11-11T21:13:38.238Z,98980.50
2022-11-11T21:17:00.078Z,98984.34
2022-11-11T21:20:21.634Z,98979.53
2022-11-11T21:23:44.992Z,98981.47
2022-11-11T21:27:06.381Z,98989.81
2022-11-11T21:30:27.770Z,98987.38
2022-11-11T21:33:52.156Z,99001.34
2022-11-11T21:37:13.635Z,99001.22
2022-11-11T21:40:38.296Z,99010.00
2022-11-11T21:44:02.010Z,99009.31
2022-11-11T21:47:23.383Z,99016.09
2022-11-11T21:50:44.870Z,99023.50
2022-11-11T21:54:07.177Z,99020.75
2022-11-11T21:57:30.009Z,99022.06
2022-11-11T22:00:51.950Z,99014.31
2022-11-11T22:04:13.933Z,99027.19
2022-11-11T22:07:35.504Z,99026.34
2022-11-11T22:11:02.078Z,99028.00
2022-11-11T22:14:25.909Z,99025.53
2022-11-11T22:17:49.218Z,99026.69
2022-11-11T22:21:12.497Z,99040.75
2022-11-11T22:24:33.778Z,99041.00
2022-11-11T22:27:55.489Z,99048.50
2022-11-11T22:31:19.691Z,99043.03
2022-11-11T22:34:41.181Z,99048.88
2022-11-11T22:38:03.079Z,99044.84
2022-11-11T22:41:25.802Z,99050.88
2022-11-11T22:44:47.185Z,99041.00
2022-11-11T22:48:10.163Z,99049.81
2022-11-11T22:51:32.709Z,99050.78
2022-11-11T22:54:53.964Z,99046.59
2022-11-11T22:58:15.430Z,99040.78
2022-11-11T23:01:37.093Z,99045.53
2022-11-11T23:04:59.873Z,99050.03
2022-11-11T23:08:21.204Z,99050.78
2022-11-11T23:11:42.504Z,99048.38
2022-11-11T23:15:03.740Z,99055.28
2022-11-11T23:18:25.626Z,99054.72
2022-11-11T23:21:48.569Z,99046.00
2022-11-11T23:25:10.404Z,99047.41
2022-11-11T23:28:31.979Z,99048.97
2022-11-11T23:31:53.330Z,99053.41
2022-11-11T23:35:14.526Z,99044.59
2022-11-11T23:38:37.369Z,99052.19
2022-11-11T23:41:58.519Z,99041.22
2022-11-11T23:45:19.633Z,99043.75
2022-11-11T23:48:41.098Z,99039.00
2022-11-11T23:52:04.031Z,99044.81
2022-11-11T23:55:26.897Z,99034.31
2022-11-11T23:58:48.628Z,99036.72
